createdAt,value
2022-12-31T00:00:38.699Z,0.00
2022-12-31T00:01:38.561Z,0.00
2022-12-31T00:02:38.755Z,0.00
2022-12-31T00:03:38.597Z,0.00
2022-12-31T00:04:38.509Z,0.00
2022-12-31T00:05:38.516Z,0.00
2022-12-31T00:06:38.529Z,0.00
2022-12-31T00:08:09.136Z,0.00
2022-12-31T00:09:10.138Z,0.00
2022-12-31T00:10:10.122Z,0.00
2022-12-31T00:11:10.103Z,0.00
2022-12-31T00:12:10.111Z,0.00
2022-12-31T00:13:10.095Z,0.00
2022-12-31T00:14:10.077Z,0.00
2022-12-31T00:15:10.071Z,0.00
2022-12-31T00:16:12.517Z,0.00
2022-12-31T00:17:10.117Z,0.00
2022-12-31T00:18:10.039Z,0.00
2022-12-31T00:19:10.034Z,0.00
2022-12-31T00:20:10.020Z,0.00
2022-12-31T00:21:10.007Z,0.00
2022-12-31T00:22:10.020Z,0.00
2022-12-31T00:23:09.983Z,0.00
2022-12-31T00:24:09.974Z,0.00
2022-12-31T00:25:09.961Z,0.00
2022-12-31T00:26:09.943Z,0.00
2022-12-31T00:27:09.953Z,0.00
2022-12-31T00:28:09.926Z,0.00
2022-12-31T00:29:09.920Z,0.00
2022-12-31T00:30:09.903Z,0.00
2022-12-31T00:31:09.920Z,0.00
2022-12-31T00:32:09.893Z,0.00
2022-12-31T00:33:09.909Z,0.00
2022-12-31T00:34:09.877Z,0.00
2022-12-31T00:35:09.869Z,0.00
2022-12-31T00:36:09.833Z,0.00
2022-12-31T00:37:09.846Z,0.00
2022-12-31T00:38:09.815Z,0.00
2022-12-31T00:39:09.808Z,0.00
2022-12-31T00:40:09.794Z,0.00
2022-12-31T00:41:09.784Z,0.00
2022-12-31T00:42:09.785Z,0.00
2022-12-31T00:43:09.762Z,0.00
2022-12-31T00:44:09.755Z,0.00
2022-12-31T00:45:09.748Z,0.00
2022-12-31T00:46:09.818Z,0.00
2022-12-31T00:47:09.747Z,0.00
2022-12-31T00:48:09.706Z,0.00
2022-12-31T00:49:09.708Z,0.00
2022-12-31T00:50:09.687Z,0.00
2022-12-31T00:51:09.681Z,0.00
2022-12-31T00:52:09.688Z,0.00
2022-12-31T00:53:09.655Z,0.00
2022-12-31T00:54:09.649Z,0.00
2022-12-31T00:55:09.623Z,0.00
2022-12-31T00:56:09.607Z,0.00
2022-12-31T00:57:09.632Z,0.00
2022-12-31T00:58:09.603Z,0.00
2022-12-31T00:59:09.588Z,0.00
2022-12-31T01:00:09.574Z,0.00
2022-12-31T01:01:09.703Z,0.00
2022-12-31T01:02:09.739Z,0.00
2022-12-31T01:03:09.611Z,0.00
2022-12-31T01:04:09.527Z,0.00
2022-12-31T01:05:09.532Z,0.00
2022-12-31T01:06:09.511Z,0.00
2022-12-31T01:07:09.516Z,0.00
2022-12-31T01:08:09.529Z,0.00
2022-12-31T01:09:09.492Z,0.00
2022-12-31T01:10:09.483Z,0.00
2022-12-31T01:11:09.456Z,0.00
2022-12-31T01:12:09.475Z,0.00
2022-12-31T01:13:09.447Z,0.00
2022-12-31T01:14:09.431Z,0.00
2022-12-31T01:15:09.430Z,0.00
2022-12-31T01:16:09.501Z,0.00
2022-12-31T01:17:09.430Z,0.00
2022-12-31T01:18:09.387Z,0.00
2022-12-31T01:19:09.369Z,0.00
2022-12-31T01:20:09.353Z,0.00
2022-12-31T01:21:09.350Z,0.00
2022-12-31T01:22:09.367Z,0.00
2022-12-31T01:23:09.328Z,0.00
2022-12-31T01:24:09.313Z,0.00
2022-12-31T01:25:09.301Z,0.00
2022-12-31T01:26:09.315Z,0.00
2022-12-31T01:27:09.312Z,0.00
2022-12-31T01:28:09.267Z,0.00
2022-12-31T01:29:09.254Z,0.00
2022-12-31T01:30:09.245Z,0.00
2022-12-31T01:31:09.329Z,0.00
2022-12-31T01:32:09.232Z,0.00
2022-12-31T01:33:09.215Z,0.00
2022-12-31T01:34:09.198Z,0.00
2022-12-31T01:35:09.214Z,0.00
2022-12-31T01:36:09.178Z,0.00
2022-12-31T01:37:09.186Z,0.00
2022-12-31T01:38:09.167Z,0.00
2022-12-31T01:39:09.192Z,0.00
2022-12-31T01:40:09.131Z,0.00
2022-12-31T01:41:09.135Z,0.00
2022-12-31T01:42:09.136Z,0.00
2022-12-31T01:43:09.112Z,0.00
2022-12-31T01:44:09.092Z,0.00
2022-12-31T01:45:09.100Z,0.00
2022-12-31T01:46:09.134Z,0.00
2022-12-31T01:47:09.086Z,0.00
2022-12-31T01:48:09.114Z,0.00
2022-12-31T01:49:09.047Z,0.00
2022-12-31T01:50:09.039Z,0.00
2022-12-31T01:51:09.051Z,0.00
2022-12-31T01:52:09.106Z,0.00
2022-12-31T01:53:09.002Z,0.00
2022-12-31T01:54:08.985Z,0.00
2022-12-31T01:55:08.999Z,0.00
2022-12-31T01:56:08.971Z,0.00
2022-12-31T01:57:08.970Z,0.00
2022-12-31T01:58:08.941Z,0.00
2022-12-31T01:59:08.937Z,0.00
2022-12-31T02:00:08.922Z,0.00
2022-12-31T02:01:08.987Z,0.00
2022-12-31T02:02:08.953Z,0.00
2022-12-31T02:03:08.963Z,0.00
2022-12-31T02:04:08.868Z,0.00
2022-12-31T02:05:08.862Z,0.00
2022-12-31T02:06:08.848Z,0.00
2022-12-31T02:07:08.898Z,0.00
2022-12-31T02:08:08.836Z,0.00
2022-12-31T02:09:08.823Z,0.00
2022-12-31T02:10:08.813Z,0.00
2022-12-31T02:11:08.795Z,0.00
2022-12-31T02:12:08.804Z,0.00
2022-12-31T02:13:08.787Z,0.00
2022-12-31T02:14:08.776Z,0.00
2022-12-31T02:15:08.763Z,0.00
2022-12-31T02:16:08.852Z,0.00
2022-12-31T02:17:08.752Z,0.00
2022-12-31T02:18:08.721Z,0.00
2022-12-31T02:19:08.719Z,0.00
2022-12-31T02:20:08.703Z,0.00
2022-12-31T02:21:08.693Z,0.00
2022-12-31T02:22:08.699Z,0.00
2022-12-31T02:23:08.674Z,0.00
2022-12-31T02:24:08.689Z,0.00
2022-12-31T02:25:08.658Z,0.00
2022-12-31T02:26:09.335Z,0.00
2022-12-31T02:27:08.650Z,0.00
2022-12-31T02:28:08.644Z,0.00
2022-12-31T02:29:08.612Z,0.00
2022-12-31T02:30:08.648Z,0.00
2022-12-31T02:31:08.618Z,0.00
2022-12-31T02:32:08.587Z,0.00
2022-12-31T02:33:08.569Z,0.00
2022-12-31T02:34:08.548Z,0.00
2022-12-31T02:35:08.553Z,0.00
2022-12-31T02:36:08.548Z,0.00
2022-12-31T02:37:08.540Z,0.00
2022-12-31T02:38:08.523Z,0.00
2022-12-31T02:39:08.538Z,0.00
2022-12-31T02:40:08.501Z,0.00
2022-12-31T02:41:08.484Z,0.00
2022-12-31T02:42:08.485Z,0.00
2022-12-31T02:43:08.455Z,0.00
2022-12-31T02:44:08.444Z,0.00
2022-12-31T02:45:08.447Z,0.00
2022-12-31T02:46:08.466Z,0.00
2022-12-31T02:47:08.477Z,0.00
2022-12-31T02:48:08.420Z,0.00
2022-12-31T02:49:08.397Z,0.00
2022-12-31T02:50:08.382Z,0.00
2022-12-31T02:51:08.374Z,0.00
2022-12-31T02:52:08.383Z,0.00
2022-12-31T02:53:08.367Z,0.00
2022-12-31T02:54:08.345Z,0.00
2022-12-31T02:55:08.338Z,0.00
2022-12-31T02:56:08.319Z,0.00
2022-12-31T02:57:08.316Z,0.00
2022-12-31T02:58:08.312Z,0.00
2022-12-31T02:59:08.293Z,0.00
2022-12-31T03:00:08.289Z,0.00
2022-12-31T03:01:08.367Z,0.00
2022-12-31T03:02:08.375Z,0.00
2022-12-31T03:03:08.312Z,0.00
2022-12-31T03:04:08.271Z,0.00
2022-12-31T03:05:08.222Z,0.00
2022-12-31T03:06:08.230Z,0.00
2022-12-31T03:07:08.216Z,0.00
2022-12-31T03:08:08.268Z,0.00
2022-12-31T03:09:08.187Z,0.00
2022-12-31T03:10:08.180Z,0.00
2022-12-31T03:11:08.164Z,0.00
2022-12-31T03:12:08.160Z,0.00
2022-12-31T03:13:08.262Z,0.00
2022-12-31T03:14:08.219Z,0.00
2022-12-31T03:15:08.128Z,0.00
2022-12-31T03:16:08.190Z,0.00
2022-12-31T03:17:08.100Z,0.00
2022-12-31T03:18:08.113Z,0.00
2022-12-31T03:19:08.101Z,0.00
2022-12-31T03:20:08.078Z,0.00
2022-12-31T03:21:08.066Z,0.00
2022-12-31T03:22:08.049Z,0.00
2022-12-31T03:23:08.083Z,0.00
2022-12-31T03:24:08.058Z,0.00
2022-12-31T03:25:08.009Z,0.00
2022-12-31T03:26:08.007Z,0.00
2022-12-31T03:27:07.987Z,0.00
2022-12-31T03:28:08.009Z,0.00
2022-12-31T03:29:08.007Z,0.00
2022-12-31T03:30:07.967Z,0.00
2022-12-31T03:31:08.061Z,0.00
2022-12-31T03:32:07.942Z,0.00
2022-12-31T03:33:07.966Z,0.00
2022-12-31T03:34:07.943Z,0.00
2022-12-31T03:35:07.989Z,0.00
2022-12-31T03:36:07.921Z,0.00
2022-12-31T03:37:07.879Z,0.00
2022-12-31T03:38:07.902Z,0.00
2022-12-31T03:39:07.877Z,0.00
2022-12-31T03:40:07.876Z,0.00
2022-12-31T03:41:07.853Z,0.00
2022-12-31T03:42:07.941Z,0.00
2022-12-31T03:43:07.871Z,0.00
2022-12-31T03:44:07.852Z,0.00
2022-12-31T03:45:07.807Z,0.00
2022-12-31T03:46:07.883Z,0.00
2022-12-31T03:47:07.783Z,0.00
2022-12-31T03:48:07.795Z,0.00
2022-12-31T03:49:07.756Z,0.00
2022-12-31T03:50:07.767Z,0.00
2022-12-31T03:51:07.774Z,0.00
2022-12-31T03:52:07.782Z,0.00
2022-12-31T03:53:07.735Z,0.00
2022-12-31T03:54:07.722Z,0.00
2022-12-31T03:55:07.738Z,0.00
2022-12-31T03:56:07.697Z,0.00
2022-12-31T03:57:07.681Z,0.00
2022-12-31T03:58:07.678Z,0.00
2022-12-31T03:59:07.679Z,0.00
2022-12-31T04:00:07.640Z,0.00
2022-12-31T04:01:07.734Z,0.00
2022-12-31T04:02:07.783Z,0.00
2022-12-31T04:03:07.696Z,0.00
2022-12-31T04:04:07.596Z,0.00
2022-12-31T04:05:07.606Z,0.00
2022-12-31T04:06:07.572Z,0.00
2022-12-31T04:07:07.578Z,0.00
2022-12-31T04:08:07.597Z,0.00
2022-12-31T04:09:07.555Z,0.00
2022-12-31T04:10:07.568Z,0.00
2022-12-31T04:11:07.540Z,0.00
2022-12-31T04:12:07.513Z,0.00
2022-12-31T04:13:07.534Z,0.00
2022-12-31T04:14:07.492Z,0.00
2022-12-31T04:15:07.497Z,0.00
2022-12-31T04:16:07.572Z,0.00
2022-12-31T04:17:07.507Z,0.00
2022-12-31T04:18:07.466Z,0.00
2022-12-31T04:19:07.444Z,0.00
2022-12-31T04:20:07.437Z,0.00
2022-12-31T04:21:07.421Z,0.00
2022-12-31T04:22:07.405Z,0.00
2022-12-31T04:23:07.425Z,0.00
2022-12-31T04:24:07.388Z,0.00
2022-12-31T04:25:07.419Z,0.00
2022-12-31T04:26:07.372Z,0.00
2022-12-31T04:27:08.122Z,0.00
2022-12-31T04:28:07.381Z,0.00
2022-12-31T04:29:07.342Z,0.00
2022-12-31T04:30:07.334Z,0.00
2022-12-31T04:31:07.321Z,0.00
2022-12-31T04:32:07.378Z,0.00
2022-12-31T04:33:07.318Z,0.00
2022-12-31T04:34:07.320Z,0.00
2022-12-31T04:35:07.289Z,0.00
2022-12-31T04:36:07.277Z,0.00
2022-12-31T04:37:07.269Z,0.00
2022-12-31T04:38:07.264Z,0.00
2022-12-31T04:39:07.245Z,0.00
2022-12-31T04:40:07.280Z,0.00
2022-12-31T04:41:07.229Z,0.00
2022-12-31T04:42:07.213Z,0.00
2022-12-31T04:43:07.219Z,0.00
2022-12-31T04:44:07.189Z,0.00
2022-12-31T04:45:07.187Z,0.00
2022-12-31T04:46:08.236Z,0.00
2022-12-31T04:47:07.165Z,0.00
2022-12-31T04:48:07.170Z,0.00
2022-12-31T04:49:07.150Z,0.00
2022-12-31T04:50:07.141Z,0.00
2022-12-31T04:51:07.147Z,0.00
2022-12-31T04:52:07.120Z,0.00
2022-12-31T04:53:07.132Z,0.00
2022-12-31T04:54:07.083Z,0.00
2022-12-31T04:55:07.077Z,0.00
2022-12-31T04:56:07.060Z,0.00
2022-12-31T04:57:07.070Z,0.00
2022-12-31T04:58:07.120Z,0.00
2022-12-31T04:59:07.041Z,0.00
2022-12-31T05:00:07.021Z,0.00
2022-12-31T05:01:07.239Z,0.00
2022-12-31T05:02:07.280Z,0.00
2022-12-31T05:03:07.088Z,0.00
2022-12-31T05:04:06.992Z,0.00
2022-12-31T05:05:06.979Z,0.00
2022-12-31T05:06:06.959Z,0.00
2022-12-31T05:07:06.995Z,0.00
2022-12-31T05:08:06.963Z,0.00
2022-12-31T05:09:06.939Z,0.00
2022-12-31T05:10:06.929Z,0.00
2022-12-31T05:11:06.912Z,0.00
2022-12-31T05:12:06.900Z,0.00
2022-12-31T05:13:06.919Z,0.00
2022-12-31T05:14:06.887Z,0.00
2022-12-31T05:15:06.884Z,0.00
2022-12-31T05:16:06.877Z,0.00
2022-12-31T05:17:06.856Z,0.00
2022-12-31T05:18:06.862Z,0.00
2022-12-31T05:19:06.924Z,0.00
2022-12-31T05:20:06.853Z,0.00
2022-12-31T05:21:06.834Z,0.00
2022-12-31T05:22:06.826Z,0.00
2022-12-31T05:23:06.827Z,0.00
2022-12-31T05:24:06.770Z,0.00
2022-12-31T05:25:06.770Z,0.00
2022-12-31T05:26:06.759Z,0.00
2022-12-31T05:27:06.747Z,0.00
2022-12-31T05:28:06.751Z,0.00
2022-12-31T05:29:06.728Z,0.00
2022-12-31T05:30:06.709Z,0.00
2022-12-31T05:31:06.744Z,0.00
2022-12-31T05:32:06.688Z,0.00
2022-12-31T05:33:06.703Z,0.00
2022-12-31T05:34:06.675Z,0.00
2022-12-31T05:35:06.665Z,0.00
2022-12-31T05:36:06.653Z,0.00
2022-12-31T05:37:06.659Z,0.00
2022-12-31T05:38:06.644Z,0.00
2022-12-31T05:39:06.639Z,0.00
2022-12-31T05:40:06.677Z,0.00
2022-12-31T05:41:06.617Z,0.00
2022-12-31T05:42:06.593Z,0.00
2022-12-31T05:43:06.619Z,0.00
2022-12-31T05:44:06.569Z,0.00
2022-12-31T05:45:06.567Z,0.00
2022-12-31T05:46:06.606Z,0.00
2022-12-31T05:47:06.544Z,0.00
2022-12-31T05:48:06.547Z,0.00
2022-12-31T05:49:06.573Z,0.00
2022-12-31T05:50:06.507Z,0.00
2022-12-31T05:51:06.519Z,0.00
2022-12-31T05:52:06.519Z,0.00
2022-12-31T05:53:06.510Z,0.00
2022-12-31T05:54:06.494Z,0.00
2022-12-31T05:55:06.477Z,0.00
2022-12-31T05:56:06.444Z,0.00
2022-12-31T05:57:06.442Z,0.00
2022-12-31T05:58:06.439Z,0.00
2022-12-31T05:59:06.453Z,0.00
2022-12-31T06:00:06.445Z,0.00
2022-12-31T06:01:06.475Z,0.00
2022-12-31T06:02:06.384Z,0.00
2022-12-31T06:03:06.556Z,0.00
2022-12-31T06:04:06.415Z,0.00
2022-12-31T06:05:06.351Z,0.00
2022-12-31T06:06:06.344Z,0.00
2022-12-31T06:07:06.350Z,0.00
2022-12-31T06:08:06.321Z,0.00
2022-12-31T06:09:06.338Z,0.00
2022-12-31T06:10:07.182Z,0.00
2022-12-31T06:11:06.293Z,0.00
2022-12-31T06:12:06.283Z,0.00
2022-12-31T06:13:06.289Z,0.00
2022-12-31T06:14:06.275Z,0.00
2022-12-31T06:15:06.256Z,0.00
2022-12-31T06:16:06.262Z,0.00
2022-12-31T06:17:06.227Z,0.00
2022-12-31T06:18:06.213Z,0.00
2022-12-31T06:19:06.229Z,0.00
2022-12-31T06:20:12.512Z,0.00
2022-12-31T06:21:06.203Z,0.00
2022-12-31T06:22:06.258Z,0.00
2022-12-31T06:23:06.170Z,0.00
2022-12-31T06:24:06.173Z,0.00
2022-12-31T06:25:06.165Z,0.00
2022-12-31T06:26:06.163Z,0.00
2022-12-31T06:27:06.127Z,0.00
2022-12-31T06:28:06.110Z,0.00
2022-12-31T06:29:06.123Z,0.00
2022-12-31T06:30:06.085Z,0.00
2022-12-31T06:31:06.173Z,0.00
2022-12-31T06:32:06.067Z,0.00
2022-12-31T06:33:06.070Z,0.00
2022-12-31T06:34:06.073Z,0.00
2022-12-31T06:35:06.053Z,0.00
2022-12-31T06:36:06.029Z,0.00
2022-12-31T06:37:06.038Z,0.00
2022-12-31T06:38:06.006Z,0.00
2022-12-31T06:39:06.025Z,0.00
2022-12-31T06:40:05.989Z,0.00
2022-12-31T06:41:05.988Z,0.00
2022-12-31T06:42:06.037Z,0.00
2022-12-31T06:43:05.963Z,0.00
2022-12-31T06:44:05.974Z,0.00
2022-12-31T06:45:05.955Z,0.00
2022-12-31T06:46:05.997Z,0.00
2022-12-31T06:47:05.914Z,0.00
2022-12-31T06:48:05.898Z,0.00
2022-12-31T06:49:05.924Z,0.00
2022-12-31T06:50:05.895Z,0.00
2022-12-31T06:51:05.880Z,0.00
2022-12-31T06:52:05.870Z,0.00
2022-12-31T06:53:05.865Z,0.00
2022-12-31T06:54:05.856Z,0.00
2022-12-31T06:55:05.842Z,0.00
2022-12-31T06:56:05.828Z,0.00
2022-12-31T06:57:05.810Z,0.00
2022-12-31T06:58:05.804Z,0.00
2022-12-31T06:59:05.825Z,0.00
2022-12-31T07:00:05.847Z,0.00
2022-12-31T07:01:05.790Z,0.00
2022-12-31T07:02:05.837Z,0.00
2022-12-31T07:03:05.826Z,0.00
2022-12-31T07:04:05.850Z,0.00
2022-12-31T07:05:05.746Z,0.00
2022-12-31T07:06:05.715Z,0.00
2022-12-31T07:07:05.715Z,0.00
2022-12-31T07:08:05.696Z,0.00
2022-12-31T07:09:05.719Z,0.00
2022-12-31T07:10:05.685Z,0.00
2022-12-31T07:11:05.677Z,0.00
2022-12-31T07:12:05.698Z,0.00
2022-12-31T07:13:05.658Z,0.00
2022-12-31T07:14:05.593Z,1.00
2022-12-31T07:15:05.586Z,1.00
2022-12-31T07:16:05.617Z,1.00
2022-12-31T07:17:05.554Z,1.00
2022-12-31T07:18:05.553Z,1.00
2022-12-31T07:19:05.550Z,1.00
2022-12-31T07:20:05.516Z,2.00
2022-12-31T07:21:05.506Z,2.00
2022-12-31T07:22:05.511Z,1.00
2022-12-31T07:23:05.492Z,2.00
2022-12-31T07:24:05.557Z,2.00
2022-12-31T07:25:05.465Z,3.00
2022-12-31T07:26:05.464Z,3.00
2022-12-31T07:27:05.452Z,3.00
2022-12-31T07:28:05.446Z,5.00
2022-12-31T07:29:05.429Z,4.00
2022-12-31T07:30:05.414Z,3.00
2022-12-31T07:31:05.491Z,4.00
2022-12-31T07:32:05.404Z,7.00
2022-12-31T07:33:05.390Z,5.00
2022-12-31T07:34:05.443Z,6.00
2022-12-31T07:35:05.349Z,7.00
2022-12-31T07:36:05.372Z,7.00
2022-12-31T07:37:05.329Z,3.00
2022-12-31T07:38:05.321Z,6.00
2022-12-31T07:39:05.329Z,7.00
2022-12-31T07:40:05.313Z,3.00
2022-12-31T07:41:09.467Z,4.00
2022-12-31T07:42:05.291Z,4.00
2022-12-31T07:43:05.265Z,1.00
2022-12-31T07:44:05.322Z,6.00
2022-12-31T07:45:05.243Z,5.00
2022-12-31T07:46:05.303Z,10.00
2022-12-31T07:47:05.224Z,10.00
2022-12-31T07:48:05.212Z,6.00
2022-12-31T07:49:05.242Z,10.00
2022-12-31T07:50:05.283Z,5.00
2022-12-31T07:51:05.187Z,5.00
2022-12-31T07:52:05.175Z,7.00
2022-12-31T07:53:05.191Z,5.00
2022-12-31T07:54:10.189Z,11.00
2022-12-31T07:55:05.138Z,5.00
2022-12-31T07:56:05.140Z,10.00
2022-12-31T07:57:05.126Z,10.00
2022-12-31T07:58:05.107Z,12.00
2022-12-31T07:59:05.109Z,11.00
2022-12-31T08:00:05.092Z,8.00
2022-12-31T08:01:05.174Z,16.00
2022-12-31T08:02:05.134Z,16.00
2022-12-31T08:03:05.057Z,16.00
2022-12-31T08:04:05.072Z,10.00
2022-12-31T08:05:05.041Z,27.00
2022-12-31T08:06:05.032Z,21.00
2022-12-31T08:07:05.004Z,18.00
2022-12-31T08:08:04.999Z,21.00
2022-12-31T08:09:05.049Z,18.00
2022-12-31T08:10:04.983Z,21.00
2022-12-31T08:11:04.965Z,22.00
2022-12-31T08:12:04.954Z,17.00
2022-12-31T08:13:04.943Z,19.00
2022-12-31T08:14:04.992Z,41.00
2022-12-31T08:15:04.922Z,42.00
2022-12-31T08:16:04.952Z,29.00
2022-12-31T08:17:04.894Z,27.00
2022-12-31T08:18:04.889Z,45.00
2022-12-31T08:19:04.882Z,43.00
2022-12-31T08:20:04.860Z,52.00
2022-12-31T08:21:04.854Z,39.00
2022-12-31T08:22:04.869Z,77.00
2022-12-31T08:23:04.840Z,25.00
2022-12-31T08:24:04.855Z,61.00
2022-12-31T08:25:04.809Z,75.00
2022-12-31T08:26:04.901Z,51.00
2022-12-31T08:27:04.782Z,27.00
2022-12-31T08:28:04.780Z,58.00
2022-12-31T08:29:04.824Z,51.00
2022-12-31T08:30:04.765Z,30.00
2022-12-31T08:31:04.756Z,51.00
2022-12-31T08:32:04.739Z,53.00
2022-12-31T08:33:04.721Z,41.00
2022-12-31T08:34:06.192Z,34.00
2022-12-31T08:35:04.716Z,57.00
2022-12-31T08:36:04.695Z,62.00
2022-12-31T08:37:04.680Z,59.00
2022-12-31T08:38:04.671Z,36.00
2022-12-31T08:39:04.669Z,55.00
2022-12-31T08:40:04.650Z,34.00
2022-12-31T08:41:04.640Z,36.00
2022-12-31T08:42:04.624Z,155.00
2022-12-31T08:43:04.617Z,114.00
2022-12-31T08:44:04.702Z,63.00
2022-12-31T08:45:04.582Z,116.00
2022-12-31T08:46:04.697Z,81.00
2022-12-31T08:47:04.611Z,65.00
2022-12-31T08:48:04.569Z,104.00
2022-12-31T08:49:04.567Z,95.00
2022-12-31T08:50:04.532Z,52.00
2022-12-31T08:51:04.531Z,117.00
2022-12-31T08:52:04.515Z,54.00
2022-12-31T08:53:04.513Z,57.00
2022-12-31T08:54:04.580Z,129.00
2022-12-31T08:55:04.471Z,60.00
2022-12-31T08:56:04.464Z,70.00
2022-12-31T08:57:04.452Z,57.00
2022-12-31T08:58:04.444Z,72.00
2022-12-31T08:59:04.438Z,56.00
2022-12-31T09:00:04.452Z,26.00
2022-12-31T09:01:04.509Z,64.00
2022-12-31T09:02:04.688Z,30.00
2022-12-31T09:03:04.395Z,57.00
2022-12-31T09:04:04.471Z,66.00
2022-12-31T09:05:04.372Z,57.00
2022-12-31T09:06:04.351Z,60.00
2022-12-31T09:07:04.345Z,141.00
2022-12-31T09:08:04.339Z,95.00
2022-12-31T09:09:04.318Z,91.00
2022-12-31T09:10:04.345Z,89.00
2022-12-31T09:11:04.315Z,62.00
2022-12-31T09:12:04.317Z,48.00
2022-12-31T09:13:04.307Z,31.00
2022-12-31T09:14:04.262Z,131.00
2022-12-31T09:15:04.259Z,91.00
2022-12-31T09:16:04.303Z,31.00
2022-12-31T09:17:04.246Z,180.00
2022-12-31T09:18:04.236Z,104.00
2022-12-31T09:19:04.209Z,88.00
2022-12-31T09:20:04.231Z,94.00
2022-12-31T09:21:04.202Z,66.00
2022-12-31T09:22:04.220Z,103.00
2022-12-31T09:23:04.163Z,50.00
2022-12-31T09:24:09.208Z,39.00
2022-12-31T09:25:04.170Z,71.00
2022-12-31T09:26:04.139Z,89.00
2022-12-31T09:27:04.116Z,100.00
2022-12-31T09:28:04.112Z,97.00
2022-12-31T09:29:04.094Z,75.00
2022-12-31T09:30:04.147Z,246.00
2022-12-31T09:31:04.081Z,237.00
2022-12-31T09:32:04.112Z,205.00
2022-12-31T09:33:04.054Z,257.00
2022-12-31T09:34:04.096Z,151.00
2022-12-31T09:35:04.065Z,292.00
2022-12-31T09:36:04.022Z,177.00
2022-12-31T09:37:04.012Z,192.00
2022-12-31T09:38:09.510Z,378.00
2022-12-31T09:39:03.995Z,212.00
2022-12-31T09:40:03.994Z,217.00
2022-12-31T09:41:03.975Z,255.00
2022-12-31T09:42:03.969Z,262.00
2022-12-31T09:43:03.938Z,310.00
2022-12-31T09:44:03.951Z,120.00
2022-12-31T09:45:03.963Z,312.00
2022-12-31T09:46:03.981Z,227.00
2022-12-31T09:47:03.912Z,217.00
2022-12-31T09:48:03.901Z,99.00
2022-12-31T09:49:03.904Z,202.00
2022-12-31T09:50:03.888Z,184.00
2022-12-31T09:51:03.853Z,191.00
2022-12-31T09:52:03.853Z,99.00
2022-12-31T09:53:03.831Z,196.00
2022-12-31T09:54:03.832Z,74.00
2022-12-31T09:55:03.830Z,426.00
2022-12-31T09:56:03.802Z,75.00
2022-12-31T09:57:03.793Z,379.00
2022-12-31T09:58:03.775Z,196.00
2022-12-31T09:59:03.784Z,416.00
2022-12-31T10:00:03.768Z,201.00
2022-12-31T10:01:03.911Z,256.00
2022-12-31T10:02:04.005Z,199.00
2022-12-31T10:03:03.759Z,367.00
2022-12-31T10:04:03.716Z,191.00
2022-12-31T10:05:03.723Z,285.00
2022-12-31T10:06:03.689Z,179.00
2022-12-31T10:07:03.688Z,221.00
2022-12-31T10:08:03.668Z,142.00
2022-12-31T10:09:03.658Z,107.00
2022-12-31T10:10:03.658Z,176.00
2022-12-31T10:11:03.661Z,234.00
2022-12-31T10:12:03.637Z,160.00
2022-12-31T10:13:03.616Z,195.00
2022-12-31T10:14:03.597Z,103.00
2022-12-31T10:15:03.602Z,159.00
2022-12-31T10:16:03.606Z,131.00
2022-12-31T10:17:03.626Z,229.00
2022-12-31T10:18:03.547Z,136.00
2022-12-31T10:19:03.536Z,104.00
2022-12-31T10:20:03.543Z,91.00
2022-12-31T10:21:03.553Z,50.00
2022-12-31T10:22:03.536Z,111.00
2022-12-31T10:23:03.485Z,224.00
2022-12-31T10:24:03.483Z,116.00
2022-12-31T10:25:03.489Z,89.00
2022-12-31T10:26:03.460Z,149.00
2022-12-31T10:27:03.445Z,204.00
2022-12-31T10:28:03.441Z,163.00
2022-12-31T10:29:03.421Z,349.00
2022-12-31T10:30:03.463Z,183.00
2022-12-31T10:31:03.483Z,403.00
2022-12-31T10:32:03.392Z,302.00
2022-12-31T10:33:03.421Z,236.00
2022-12-31T10:34:03.400Z,178.00
2022-12-31T10:35:03.376Z,190.00
2022-12-31T10:36:03.359Z,231.00
2022-12-31T10:37:03.342Z,364.00
2022-12-31T10:38:03.341Z,147.00
2022-12-31T10:39:07.501Z,233.00
2022-12-31T10:40:03.347Z,51.00
2022-12-31T10:41:03.287Z,278.00
2022-12-31T10:42:03.277Z,122.00
2022-12-31T10:43:03.262Z,70.00
2022-12-31T10:44:03.256Z,106.00
2022-12-31T10:45:03.260Z,153.00
2022-12-31T10:46:03.301Z,190.00
2022-12-31T10:47:03.232Z,148.00
2022-12-31T10:48:03.214Z,87.00
2022-12-31T10:49:03.199Z,233.00
2022-12-31T10:50:03.210Z,422.00
2022-12-31T10:51:03.177Z,433.00
2022-12-31T10:52:03.171Z,555.00
2022-12-31T10:53:03.152Z,603.00
2022-12-31T10:54:03.141Z,357.00
2022-12-31T10:55:03.153Z,269.00
2022-12-31T10:56:03.120Z,322.00
2022-12-31T10:57:03.267Z,306.00
2022-12-31T10:58:04.468Z,63.00
2022-12-31T10:59:03.088Z,131.00
2022-12-31T11:00:03.153Z,145.00
2022-12-31T11:01:03.133Z,237.00
2022-12-31T11:02:03.197Z,681.00
2022-12-31T11:03:03.178Z,458.00
2022-12-31T11:04:03.034Z,340.00
2022-12-31T11:05:03.035Z,317.00
2022-12-31T11:06:03.009Z,295.00
2022-12-31T11:07:03.004Z,367.00
2022-12-31T11:08:02.989Z,211.00
2022-12-31T11:09:02.974Z,382.00
2022-12-31T11:10:02.990Z,494.00
2022-12-31T11:11:02.952Z,340.00
2022-12-31T11:12:02.939Z,76.00
2022-12-31T11:13:02.925Z,444.00
2022-12-31T11:14:02.951Z,271.00
2022-12-31T11:15:02.991Z,281.00
2022-12-31T11:16:03.073Z,80.00
2022-12-31T11:17:02.884Z,237.00
2022-12-31T11:18:02.882Z,350.00
2022-12-31T11:19:02.865Z,187.00
2022-12-31T11:20:02.882Z,205.00
2022-12-31T11:21:02.835Z,85.00
2022-12-31T11:22:02.881Z,116.00
2022-12-31T11:23:02.807Z,60.00
2022-12-31T11:24:02.816Z,114.00
2022-12-31T11:25:02.819Z,113.00
2022-12-31T11:26:02.886Z,181.00
2022-12-31T11:27:02.813Z,194.00
2022-12-31T11:28:02.823Z,213.00
2022-12-31T11:29:02.745Z,155.00
2022-12-31T11:30:02.797Z,46.00
2022-12-31T11:31:02.829Z,71.00
2022-12-31T11:32:02.744Z,273.00
2022-12-31T11:33:02.693Z,294.00
2022-12-31T11:34:02.684Z,452.00
2022-12-31T11:35:02.706Z,436.00
2022-12-31T11:36:02.671Z,373.00
2022-12-31T11:37:02.656Z,349.00
2022-12-31T11:38:02.658Z,85.00
2022-12-31T11:39:02.664Z,384.00
2022-12-31T11:40:02.670Z,327.00
2022-12-31T11:41:02.618Z,255.00
2022-12-31T11:42:02.595Z,415.00
2022-12-31T11:43:02.619Z,422.00
2022-12-31T11:44:02.586Z,152.00
2022-12-31T11:45:02.599Z,278.00
2022-12-31T11:46:02.582Z,245.00
2022-12-31T11:47:02.545Z,310.00
2022-12-31T11:48:29.817Z,108.00
2022-12-31T11:49:02.591Z,256.00
2022-12-31T11:50:02.526Z,414.00
2022-12-31T11:51:02.504Z,418.00
2022-12-31T11:52:02.490Z,263.00
2022-12-31T11:53:02.496Z,444.00
2022-12-31T11:54:02.499Z,437.00
2022-12-31T11:55:02.485Z,226.00
2022-12-31T11:56:02.447Z,202.00
2022-12-31T11:57:02.448Z,670.00
2022-12-31T11:58:02.448Z,291.00
2022-12-31T11:59:07.785Z,398.00
2022-12-31T12:00:02.533Z,250.00
2022-12-31T12:01:02.641Z,322.00
2022-12-31T12:02:02.423Z,275.00
2022-12-31T12:03:02.472Z,363.00
2022-12-31T12:04:02.446Z,374.00
2022-12-31T12:05:10.095Z,502.00
2022-12-31T12:06:02.331Z,448.00
2022-12-31T12:07:02.350Z,388.00
2022-12-31T12:08:02.304Z,353.00
2022-12-31T12:09:02.352Z,628.00
2022-12-31T12:10:02.313Z,513.00
2022-12-31T12:11:02.282Z,616.00
2022-12-31T12:12:02.262Z,403.00
2022-12-31T12:13:02.266Z,487.00
2022-12-31T12:14:02.256Z,376.00
2022-12-31T12:15:02.250Z,563.00
2022-12-31T12:16:02.309Z,507.00
2022-12-31T12:17:05.296Z,321.00
2022-12-31T12:18:02.217Z,158.00
2022-12-31T12:19:02.196Z,486.00
2022-12-31T12:20:02.187Z,383.00
2022-12-31T12:21:02.184Z,501.00
2022-12-31T12:22:02.776Z,224.00
2022-12-31T12:23:02.201Z,265.00
2022-12-31T12:24:02.124Z,161.00
2022-12-31T12:25:02.133Z,397.00
2022-12-31T12:26:02.171Z,416.00
2022-12-31T12:27:02.092Z,318.00
2022-12-31T12:28:02.079Z,311.00
2022-12-31T12:29:02.070Z,227.00
2022-12-31T12:30:02.092Z,371.00
2022-12-31T12:31:02.113Z,292.00
2022-12-31T12:32:02.036Z,471.00
2022-12-31T12:33:02.060Z,478.00
2022-12-31T12:34:02.012Z,350.00
2022-12-31T12:35:02.209Z,243.00
2022-12-31T12:36:01.988Z,128.00
2022-12-31T12:37:01.987Z,247.00
2022-12-31T12:38:01.963Z,131.00
2022-12-31T12:39:01.968Z,201.00
2022-12-31T12:40:01.974Z,346.00
2022-12-31T12:41:01.944Z,213.00
2022-12-31T12:42:01.915Z,167.00
2022-12-31T12:43:01.921Z,202.00
2022-12-31T12:44:01.900Z,142.00
2022-12-31T12:45:01.930Z,110.00
2022-12-31T12:46:01.875Z,174.00
2022-12-31T12:47:01.926Z,226.00
2022-12-31T12:48:01.853Z,139.00
2022-12-31T12:49:01.844Z,194.00
2022-12-31T12:50:01.941Z,176.00
2022-12-31T12:51:01.839Z,71.00
2022-12-31T12:52:01.816Z,40.00
2022-12-31T12:53:01.807Z,244.00
2022-12-31T12:54:01.793Z,67.00
2022-12-31T12:55:01.802Z,108.00
2022-12-31T12:56:01.768Z,352.00
2022-12-31T12:57:01.758Z,179.00
2022-12-31T12:58:01.737Z,231.00
2022-12-31T12:59:01.735Z,146.00
2022-12-31T13:00:01.776Z,96.00
2022-12-31T13:01:01.933Z,58.00
2022-12-31T13:02:01.838Z,152.00